sensor_id;sensor_type;location;lat;lon;timestamp;P1;durP1;ratioP1;P2;durP2;ratioP2
38603;SDS011;24924;50.054;8.790;2023-11-19T00:00:48;5.10;;;3.10;;
38603;SDS011;24924;50.054;8.790;2023-11-19T00:03:26;5.03;;;3.58;;
38603;SDS011;24924;50.054;8.790;2023-11-19T00:05:53;6.85;;;3.85;;
38603;SDS011;24924;50.054;8.790;2023-11-19T00:08:21;7.53;;;3.70;;
38603;SDS011;24924;50.054;8.790;2023-11-19T00:10:50;4.10;;;2.55;;
38603;SDS011;24924;50.054;8.790;2023-11-19T00:13:24;8.63;;;3.40;;
38603;SDS011;24924;50.054;8.790;2023-11-19T00:15:51;7.80;;;3.75;;
38603;SDS011;24924;50.054;8.790;2023-11-19T00:18:21;6.57;;;4.18;;
38603;SDS011;24924;50.054;8.790;2023-11-19T00:20:47;6.78;;;4.25;;
38603;SDS011;24924;50.054;8.790;2023-11-19T00:23:22;6.63;;;3.97;;
38603;SDS011;24924;50.054;8.790;2023-11-19T00:25:52;5.43;;;3.50;;
38603;SDS011;24924;50.054;8.790;2023-11-19T00:28:18;5.32;;;3.22;;
38603;SDS011;24924;50.054;8.790;2023-11-19T00:30:45;5.97;;;3.63;;
38603;SDS011;24924;50.054;8.790;2023-11-19T00:33:11;7.03;;;3.75;;
38603;SDS011;24924;50.054;8.790;2023-11-19T00:35:41;5.95;;;3.75;;
38603;SDS011;24924;50.054;8.790;2023-11-19T00:38:09;5.93;;;3.40;;
38603;SDS011;24924;50.054;8.790;2023-11-19T00:40:36;5.03;;;3.28;;
38603;SDS011;24924;50.054;8.790;2023-11-19T00:43:05;7.53;;;4.65;;
38603;SDS011;24924;50.054;8.790;2023-11-19T00:45:36;7.82;;;4.65;;
38603;SDS011;24924;50.054;8.790;2023-11-19T00:48:03;7.43;;;4.40;;
38603;SDS011;24924;50.054;8.790;2023-11-19T00:50:30;5.93;;;3.00;;
38603;SDS011;24924;50.054;8.790;2023-11-19T00:52:57;6.20;;;3.80;;
38603;SDS011;24924;50.054;8.790;2023-11-19T00:55:23;6.78;;;4.10;;
38603;SDS011;24924;50.054;8.790;2023-11-19T00:57:50;4.88;;;2.92;;
38603;SDS011;24924;50.054;8.790;2023-11-19T01:00:16;5.70;;;3.65;;
38603;SDS011;24924;50.054;8.790;2023-11-19T01:02:49;6.03;;;3.30;;
38603;SDS011;24924;50.054;8.790;2023-11-19T01:05:16;7.65;;;4.20;;
38603;SDS011;24924;50.054;8.790;2023-11-19T01:07:46;5.57;;;4.00;;
38603;SDS011;24924;50.054;8.790;2023-11-19T01:10:13;4.60;;;3.13;;
38603;SDS011;24924;50.054;8.790;2023-11-19T01:12:41;5.25;;;3.13;;
38603;SDS011;24924;50.054;8.790;2023-11-19T01:15:08;6.60;;;3.13;;
38603;SDS011;24924;50.054;8.790;2023-11-19T01:17:36;7.30;;;3.63;;
38603;SDS011;24924;50.054;8.790;2023-11-19T01:20:04;6.28;;;3.55;;
38603;SDS011;24924;50.054;8.790;2023-11-19T01:22:39;5.35;;;3.15;;
38603;SDS011;24924;50.054;8.790;2023-11-19T01:25:06;5.20;;;2.95;;
38603;SDS011;24924;50.054;8.790;2023-11-19T01:27:36;5.37;;;2.73;;
38603;SDS011;24924;50.054;8.790;2023-11-19T01:30:05;5.10;;;3.05;;
38603;SDS011;24924;50.054;8.790;2023-11-19T01:32:35;5.07;;;3.53;;
38603;SDS011;24924;50.054;8.790;2023-11-19T01:35:02;6.47;;;4.40;;
38603;SDS011;24924;50.054;8.790;2023-11-19T01:37:29;5.53;;;3.40;;
38603;SDS011;24924;50.054;8.790;2023-11-19T01:39:56;4.20;;;2.33;;
38603;SDS011;24924;50.054;8.790;2023-11-19T01:42:23;4.75;;;2.85;;
38603;SDS011;24924;50.054;8.790;2023-11-19T01:45:00;5.13;;;2.95;;
38603;SDS011;24924;50.054;8.790;2023-11-19T01:47:27;5.38;;;2.80;;
38603;SDS011;24924;50.054;8.790;2023-11-19T01:49:54;5.00;;;2.92;;
38603;SDS011;24924;50.054;8.790;2023-11-19T01:52:23;5.43;;;3.03;;
38603;SDS011;24924;50.054;8.790;2023-11-19T01:54:50;5.93;;;2.83;;
38603;SDS011;24924;50.054;8.790;2023-11-19T01:57:23;5.80;;;3.15;;
38603;SDS011;24924;50.054;8.790;2023-11-19T01:59:51;4.32;;;2.65;;
38603;SDS011;24924;50.054;8.790;2023-11-19T02:02:18;4.90;;;2.80;;
38603;SDS011;24924;50.054;8.790;2023-11-19T02:04:49;4.50;;;2.43;;
38603;SDS011;24924;50.054;8.790;2023-11-19T02:07:16;4.70;;;2.53;;
38603;SDS011;24924;50.054;8.790;2023-11-19T02:09:43;4.88;;;3.00;;
38603;SDS011;24924;50.054;8.790;2023-11-19T02:12:10;4.75;;;2.60;;
38603;SDS011;24924;50.054;8.790;2023-11-19T02:14:40;3.97;;;2.60;;
38603;SDS011;24924;50.054;8.790;2023-11-19T02:17:07;4.47;;;2.40;;
38603;SDS011;24924;50.054;8.790;2023-11-19T02:19:34;4.65;;;2.38;;
38603;SDS011;24924;50.054;8.790;2023-11-19T02:22:01;5.93;;;3.25;;
38603;SDS011;24924;50.054;8.790;2023-11-19T02:24:27;4.00;;;2.33;;
38603;SDS011;24924;50.054;8.790;2023-11-19T02:27:02;5.60;;;2.67;;
38603;SDS011;24924;50.054;8.790;2023-11-19T02:29:33;3.70;;;2.10;;
38603;SDS011;24924;50.054;8.790;2023-11-19T02:32:00;4.63;;;2.50;;
38603;SDS011;24924;50.054;8.790;2023-11-19T02:34:27;4.15;;;2.42;;
38603;SDS011;24924;50.054;8.790;2023-11-19T02:36:54;5.15;;;2.72;;
38603;SDS011;24924;50.054;8.790;2023-11-19T02:39:23;3.85;;;2.17;;
38603;SDS011;24924;50.054;8.790;2023-11-19T02:41:54;4.50;;;2.30;;
38603;SDS011;24924;50.054;8.790;2023-11-19T02:44:24;4.03;;;2.33;;
38603;SDS011;24924;50.054;8.790;2023-11-19T02:47:01;4.57;;;2.28;;
38603;SDS011;24924;50.054;8.790;2023-11-19T02:49:29;3.83;;;2.33;;
38603;SDS011;24924;50.054;8.790;2023-11-19T02:51:55;3.83;;;2.28;;
38603;SDS011;24924;50.054;8.790;2023-11-19T02:54:22;3.57;;;2.17;;
38603;SDS011;24924;50.054;8.790;2023-11-19T02:56:52;4.35;;;2.25;;
38603;SDS011;24924;50.054;8.790;2023-11-19T02:59:25;3.97;;;2.58;;
38603;SDS011;24924;50.054;8.790;2023-11-19T03:02:05;6.07;;;2.28;;
38603;SDS011;24924;50.054;8.790;2023-11-19T03:04:35;4.30;;;2.03;;
38603;SDS011;24924;50.054;8.790;2023-11-19T03:07:01;3.60;;;2.13;;
38603;SDS011;24924;50.054;8.790;2023-11-19T03:09:28;4.55;;;2.40;;
38603;SDS011;24924;50.054;8.790;2023-11-19T03:11:55;3.70;;;2.05;;
38603;SDS011;24924;50.054;8.790;2023-11-19T03:14:21;4.35;;;2.05;;
38603;SDS011;24924;50.054;8.790;2023-11-19T03:16:51;4.10;;;2.30;;
38603;SDS011;24924;50.054;8.790;2023-11-19T03:19:18;3.60;;;2.23;;
38603;SDS011;24924;50.054;8.790;2023-11-19T03:21:44;3.35;;;2.13;;
38603;SDS011;24924;50.054;8.790;2023-11-19T03:24:12;3.30;;;2.08;;
38603;SDS011;24924;50.054;8.790;2023-11-19T03:26:41;3.72;;;2.15;;
38603;SDS011;24924;50.054;8.790;2023-11-19T03:29:08;5.97;;;2.13;;
38603;SDS011;24924;50.054;8.790;2023-11-19T03:31:35;3.57;;;2.10;;
38603;SDS011;24924;50.054;8.790;2023-11-19T03:34:03;3.75;;;2.10;;
38603;SDS011;24924;50.054;8.790;2023-11-19T03:36:33;3.83;;;2.20;;
38603;SDS011;24924;50.054;8.790;2023-11-19T03:39:02;3.85;;;1.90;;
38603;SDS011;24924;50.054;8.790;2023-11-19T03:41:29;3.95;;;2.40;;
38603;SDS011;24924;50.054;8.790;2023-11-19T03:43:58;3.57;;;2.03;;
38603;SDS011;24924;50.054;8.790;2023-11-19T03:46:25;3.85;;;2.35;;
38603;SDS011;24924;50.054;8.790;2023-11-19T03:48:52;4.03;;;2.33;;
38603;SDS011;24924;50.054;8.790;2023-11-19T03:51:21;3.70;;;2.10;;
38603;SDS011;24924;50.054;8.790;2023-11-19T03:53:48;4.13;;;2.28;;
38603;SDS011;24924;50.054;8.790;2023-11-19T03:56:17;3.90;;;2.30;;
38603;SDS011;24924;50.054;8.790;2023-11-19T03:58:46;3.97;;;2.17;;
38603;SDS011;24924;50.054;8.790;2023-11-19T04:01:13;4.25;;;2.60;;
38603;SDS011;24924;50.054;8.790;2023-11-19T04:03:39;4.05;;;2.47;;
38603;SDS011;24924;50.054;8.790;2023-11-19T04:06:06;4.47;;;2.40;;
38603;SDS011;24924;50.054;8.790;2023-11-19T04:08:33;3.67;;;2.27;;
38603;SDS011;24924;50.054;8.790;2023-11-19T04:11:02;3.70;;;2.22;;
38603;SDS011;24924;50.054;8.790;2023-11-19T04:13:31;7.60;;;2.13;;
38603;SDS011;24924;50.054;8.790;2023-11-19T04:16:00;4.05;;;2.53;;
38603;SDS011;24924;50.054;8.790;2023-11-19T04:18:27;4.07;;;2.30;;
38603;SDS011;24924;50.054;8.790;2023-11-19T04:20:53;4.13;;;2.37;;
38603;SDS011;24924;50.054;8.790;2023-11-19T04:23:23;4.07;;;2.30;;
38603;SDS011;24924;50.054;8.790;2023-11-19T04:25:53;3.95;;;2.33;;
38603;SDS011;24924;50.054;8.790;2023-11-19T04:28:20;3.83;;;2.13;;
38603;SDS011;24924;50.054;8.790;2023-11-19T04:30:46;3.50;;;2.10;;
38603;SDS011;24924;50.054;8.790;2023-11-19T04:33:13;3.43;;;1.97;;
38603;SDS011;24924;50.054;8.790;2023-11-19T04:35:40;3.17;;;1.90;;
38603;SDS011;24924;50.054;8.790;2023-11-19T04:38:07;3.63;;;2.33;;
38603;SDS011;24924;50.054;8.790;2023-11-19T04:40:34;4.65;;;2.42;;
38603;SDS011;24924;50.054;8.790;2023-11-19T04:43:08;3.90;;;2.35;;
38603;SDS011;24924;50.054;8.790;2023-11-19T04:45:35;3.60;;;2.20;;
38603;SDS011;24924;50.054;8.790;2023-11-19T04:48:05;4.05;;;2.20;;
38603;SDS011;24924;50.054;8.790;2023-11-19T04:50:31;4.13;;;2.47;;
38603;SDS011;24924;50.054;8.790;2023-11-19T04:52:58;4.25;;;2.60;;
38603;SDS011;24924;50.054;8.790;2023-11-19T04:55:24;4.05;;;2.60;;
38603;SDS011;24924;50.054;8.790;2023-11-19T04:57:53;4.40;;;2.27;;
38603;SDS011;24924;50.054;8.790;2023-11-19T05:00:20;4.07;;;2.30;;
38603;SDS011;24924;50.054;8.790;2023-11-19T05:02:52;4.50;;;3.13;;
38603;SDS011;24924;50.054;8.790;2023-11-19T05:05:18;4.32;;;2.78;;
38603;SDS011;24924;50.054;8.790;2023-11-19T05:07:48;4.68;;;2.78;;
38603;SDS011;24924;50.054;8.790;2023-11-19T05:10:14;4.67;;;2.90;;
38603;SDS011;24924;50.054;8.790;2023-11-19T05:12:40;4.20;;;2.10;;
38603;SDS011;24924;50.054;8.790;2023-11-19T05:15:07;3.65;;;2.22;;
38603;SDS011;24924;50.054;8.790;2023-11-19T05:17:33;3.85;;;2.33;;
38603;SDS011;24924;50.054;8.790;2023-11-19T05:20:05;4.50;;;2.53;;
38603;SDS011;24924;50.054;8.790;2023-11-19T05:22:41;3.90;;;2.27;;
38603;SDS011;24924;50.054;8.790;2023-11-19T05:25:07;4.97;;;2.95;;
38603;SDS011;24924;50.054;8.790;2023-11-19T05:27:37;4.72;;;3.00;;
38603;SDS011;24924;50.054;8.790;2023-11-19T05:30:04;7.53;;;2.67;;
38603;SDS011;24924;50.054;8.790;2023-11-19T05:32:33;4.38;;;2.70;;
38603;SDS011;24924;50.054;8.790;2023-11-19T05:34:59;4.30;;;2.47;;
38603;SDS011;24924;50.054;8.790;2023-11-19T05:37:26;4.63;;;2.70;;
38603;SDS011;24924;50.054;8.790;2023-11-19T05:39:52;4.85;;;3.03;;
38603;SDS011;24924;50.054;8.790;2023-11-19T05:42:19;4.82;;;2.90;;
38603;SDS011;24924;50.054;8.790;2023-11-19T05:44:48;5.18;;;3.42;;
38603;SDS011;24924;50.054;8.790;2023-11-19T05:47:14;5.40;;;2.90;;
38603;SDS011;24924;50.054;8.790;2023-11-19T05:49:43;5.05;;;3.00;;
38603;SDS011;24924;50.054;8.790;2023-11-19T05:52:09;4.57;;;2.92;;
38603;SDS011;24924;50.054;8.790;2023-11-19T05:54:37;5.55;;;3.47;;
38603;SDS011;24924;50.054;8.790;2023-11-19T05:57:04;4.75;;;2.40;;
38603;SDS011;24924;50.054;8.790;2023-11-19T05:59:32;4.20;;;2.70;;
38603;SDS011;24924;50.054;8.790;2023-11-19T06:01:58;5.28;;;2.90;;
38603;SDS011;24924;50.054;8.790;2023-11-19T06:04:25;4.93;;;3.17;;
38603;SDS011;24924;50.054;8.790;2023-11-19T06:06:51;5.15;;;3.17;;
38603;SDS011;24924;50.054;8.790;2023-11-19T06:09:17;5.35;;;3.17;;
38603;SDS011;24924;50.054;8.790;2023-11-19T06:11:44;7.17;;;3.97;;
38603;SDS011;24924;50.054;8.790;2023-11-19T06:14:12;7.10;;;3.25;;
38603;SDS011;24924;50.054;8.790;2023-11-19T06:16:42;5.68;;;3.90;;
38603;SDS011;24924;50.054;8.790;2023-11-19T06:19:09;6.43;;;3.13;;
38603;SDS011;24924;50.054;8.790;2023-11-19T06:21:37;5.38;;;3.20;;
38603;SDS011;24924;50.054;8.790;2023-11-19T06:24:03;4.67;;;2.50;;
38603;SDS011;24924;50.054;8.790;2023-11-19T06:26:30;6.65;;;4.18;;
38603;SDS011;24924;50.054;8.790;2023-11-19T06:28:56;5.53;;;2.83;;
38603;SDS011;24924;50.054;8.790;2023-11-19T06:31:22;6.43;;;3.25;;
38603;SDS011;24924;50.054;8.790;2023-11-19T06:33:49;7.28;;;3.75;;
38603;SDS011;24924;50.054;8.790;2023-11-19T06:36:15;6.93;;;4.03;;
38603;SDS011;24924;50.054;8.790;2023-11-19T06:38:42;6.85;;;3.47;;
38603;SDS011;24924;50.054;8.790;2023-11-19T06:41:11;6.53;;;4.00;;
38603;SDS011;24924;50.054;8.790;2023-11-19T06:43:37;5.30;;;3.20;;
38603;SDS011;24924;50.054;8.790;2023-11-19T06:46:04;6.32;;;3.85;;
38603;SDS011;24924;50.054;8.790;2023-11-19T06:48:34;5.47;;;3.27;;
38603;SDS011;24924;50.054;8.790;2023-11-19T06:51:00;5.85;;;3.47;;
38603;SDS011;24924;50.054;8.790;2023-11-19T06:53:27;7.53;;;3.92;;
38603;SDS011;24924;50.054;8.790;2023-11-19T06:55:53;5.57;;;3.17;;
38603;SDS011;24924;50.054;8.790;2023-11-19T06:58:24;4.32;;;2.65;;
38603;SDS011;24924;50.054;8.790;2023-11-19T07:00:51;5.47;;;2.93;;
38603;SDS011;24924;50.054;8.790;2023-11-19T07:03:18;5.40;;;3.40;;
38603;SDS011;24924;50.054;8.790;2023-11-19T07:05:45;5.13;;;3.00;;
38603;SDS011;24924;50.054;8.790;2023-11-19T07:08:12;5.43;;;3.17;;
38603;SDS011;24924;50.054;8.790;2023-11-19T07:10:40;4.85;;;3.10;;
38603;SDS011;24924;50.054;8.790;2023-11-19T07:13:08;4.60;;;2.50;;
38603;SDS011;24924;50.054;8.790;2023-11-19T07:15:35;5.88;;;3.15;;
38603;SDS011;24924;50.054;8.790;2023-11-19T07:18:05;5.50;;;3.33;;
38603;SDS011;24924;50.054;8.790;2023-11-19T07:20:32;4.95;;;2.92;;
38603;SDS011;24924;50.054;8.790;2023-11-19T07:22:58;5.15;;;3.05;;
38603;SDS011;24924;50.054;8.790;2023-11-19T07:25:25;5.70;;;3.00;;
38603;SDS011;24924;50.054;8.790;2023-11-19T07:27:52;5.10;;;2.97;;
38603;SDS011;24924;50.054;8.790;2023-11-19T07:30:19;5.30;;;2.75;;
38603;SDS011;24924;50.054;8.790;2023-11-19T07:32:45;4.90;;;2.70;;
38603;SDS011;24924;50.054;8.790;2023-11-19T07:35:12;6.75;;;2.80;;
38603;SDS011;24924;50.054;8.790;2023-11-19T07:37:38;5.87;;;3.50;;
38603;SDS011;24924;50.054;8.790;2023-11-19T07:40:05;4.72;;;2.42;;
38603;SDS011;24924;50.054;8.790;2023-11-19T07:42:36;4.47;;;2.55;;
38603;SDS011;24924;50.054;8.790;2023-11-19T07:45:03;6.05;;;2.70;;
38603;SDS011;24924;50.054;8.790;2023-11-19T07:47:33;5.35;;;2.92;;
38603;SDS011;24924;50.054;8.790;2023-11-19T07:50:00;5.07;;;2.90;;
38603;SDS011;24924;50.054;8.790;2023-11-19T07:52:26;5.47;;;3.30;;
38603;SDS011;24924;50.054;8.790;2023-11-19T07:54:54;4.90;;;3.08;;
38603;SDS011;24924;50.054;8.790;2023-11-19T07:57:21;7.03;;;3.05;;
38603;SDS011;24924;50.054;8.790;2023-11-19T07:59:49;5.53;;;3.20;;
38603;SDS011;24924;50.054;8.790;2023-11-19T08:02:17;5.33;;;3.07;;
38603;SDS011;24924;50.054;8.790;2023-11-19T08:04:44;5.18;;;2.95;;
38603;SDS011;24924;50.054;8.790;2023-11-19T08:07:11;5.07;;;3.33;;
38603;SDS011;24924;50.054;8.790;2023-11-19T08:09:37;4.72;;;2.88;;
38603;SDS011;24924;50.054;8.790;2023-11-19T08:12:04;4.53;;;2.65;;
38603;SDS011;24924;50.054;8.790;2023-11-19T08:14:34;5.70;;;2.80;;
38603;SDS011;24924;50.054;8.790;2023-11-19T08:17:03;5.35;;;2.53;;
38603;SDS011;24924;50.054;8.790;2023-11-19T08:19:29;4.60;;;2.47;;
38603;SDS011;24924;50.054;8.790;2023-11-19T08:21:58;5.38;;;3.08;;
38603;SDS011;24924;50.054;8.790;2023-11-19T08:24:24;4.57;;;2.47;;
38603;SDS011;24924;50.054;8.790;2023-11-19T08:26:51;4.63;;;2.53;;
38603;SDS011;24924;50.054;8.790;2023-11-19T08:29:17;4.78;;;2.50;;
38603;SDS011;24924;50.054;8.790;2023-11-19T08:31:43;4.63;;;2.75;;
38603;SDS011;24924;50.054;8.790;2023-11-19T08:34:10;5.03;;;2.55;;
38603;SDS011;24924;50.054;8.790;2023-11-19T08:36:37;4.30;;;2.63;;
38603;SDS011;24924;50.054;8.790;2023-11-19T08:39:06;4.50;;;2.33;;
38603;SDS011;24924;50.054;8.790;2023-11-19T08:41:34;4.40;;;2.50;;
38603;SDS011;24924;50.054;8.790;2023-11-19T08:44:00;5.80;;;2.97;;
38603;SDS011;24924;50.054;8.790;2023-11-19T08:46:26;5.90;;;2.20;;
38603;SDS011;24924;50.054;8.790;2023-11-19T08:49:01;4.50;;;2.22;;
38603;SDS011;24924;50.054;8.790;2023-11-19T08:51:32;5.23;;;2.50;;
38603;SDS011;24924;50.054;8.790;2023-11-19T08:53:58;5.70;;;2.33;;
38603;SDS011;24924;50.054;8.790;2023-11-19T08:56:29;4.10;;;2.20;;
38603;SDS011;24924;50.054;8.790;2023-11-19T08:59:09;5.80;;;2.10;;
38603;SDS011;24924;50.054;8.790;2023-11-19T09:01:39;5.10;;;2.38;;
38603;SDS011;24924;50.054;8.790;2023-11-19T09:04:08;4.17;;;1.70;;
38603;SDS011;24924;50.054;8.790;2023-11-19T09:06:40;3.90;;;1.95;;
38603;SDS011;24924;50.054;8.790;2023-11-19T09:09:09;3.65;;;1.98;;
38603;SDS011;24924;50.054;8.790;2023-11-19T09:11:35;5.20;;;1.90;;
38603;SDS011;24924;50.054;8.790;2023-11-19T09:14:02;3.90;;;1.90;;
38603;SDS011;24924;50.054;8.790;2023-11-19T09:16:29;6.30;;;2.13;;
38603;SDS011;24924;50.054;8.790;2023-11-19T09:18:56;3.50;;;1.75;;
38603;SDS011;24924;50.054;8.790;2023-11-19T09:21:26;3.92;;;1.70;;
38603;SDS011;24924;50.054;8.790;2023-11-19T09:23:54;4.10;;;1.70;;
38603;SDS011;24924;50.054;8.790;2023-11-19T09:26:21;4.18;;;1.70;;
38603;SDS011;24924;50.054;8.790;2023-11-19T09:28:47;3.07;;;1.33;;
38603;SDS011;24924;50.054;8.790;2023-11-19T09:31:16;4.00;;;1.83;;
38603;SDS011;24924;50.054;8.790;2023-11-19T09:33:43;3.15;;;1.23;;
38603;SDS011;24924;50.054;8.790;2023-11-19T09:36:11;2.90;;;1.15;;
38603;SDS011;24924;50.054;8.790;2023-11-19T09:38:43;5.65;;;1.60;;
38603;SDS011;24924;50.054;8.790;2023-11-19T09:41:10;3.87;;;1.60;;
38603;SDS011;24924;50.054;8.790;2023-11-19T09:43:39;3.80;;;1.40;;
38603;SDS011;24924;50.054;8.790;2023-11-19T09:46:10;3.90;;;1.73;;
38603;SDS011;24924;50.054;8.790;2023-11-19T09:48:39;2.97;;;1.30;;
38603;SDS011;24924;50.054;8.790;2023-11-19T09:51:06;3.85;;;1.42;;
38603;SDS011;24924;50.054;8.790;2023-11-19T09:53:39;2.90;;;1.30;;
38603;SDS011;24924;50.054;8.790;2023-11-19T09:56:05;4.00;;;1.58;;
38603;SDS011;24924;50.054;8.790;2023-11-19T09:58:33;3.55;;;1.70;;
38603;SDS011;24924;50.054;8.790;2023-11-19T10:00:59;3.17;;;1.40;;
38603;SDS011;24924;50.054;8.790;2023-11-19T10:03:32;4.38;;;1.50;;
38603;SDS011;24924;50.054;8.790;2023-11-19T10:05:59;4.93;;;1.50;;
38603;SDS011;24924;50.054;8.790;2023-11-19T10:08:27;3.45;;;1.70;;
38603;SDS011;24924;50.054;8.790;2023-11-19T10:10:53;4.32;;;1.48;;
38603;SDS011;24924;50.054;8.790;2023-11-19T10:13:20;4.65;;;1.60;;
38603;SDS011;24924;50.054;8.790;2023-11-19T10:15:53;5.15;;;1.52;;
38603;SDS011;24924;50.054;8.790;2023-11-19T10:18:23;4.77;;;1.50;;
38603;SDS011;24924;50.054;8.790;2023-11-19T10:20:49;3.05;;;1.40;;
38603;SDS011;24924;50.054;8.790;2023-11-19T10:23:16;3.60;;;1.80;;
38603;SDS011;24924;50.054;8.790;2023-11-19T10:25:42;3.83;;;1.67;;
38603;SDS011;24924;50.054;8.790;2023-11-19T10:28:09;3.58;;;1.63;;
38603;SDS011;24924;50.054;8.790;2023-11-19T10:30:35;5.17;;;2.00;;
38603;SDS011;24924;50.054;8.790;2023-11-19T10:33:09;3.83;;;1.52;;
38603;SDS011;24924;50.054;8.790;2023-11-19T10:35:55;4.65;;;1.85;;
38603;SDS011;24924;50.054;8.790;2023-11-19T10:38:25;3.53;;;1.35;;
38603;SDS011;24924;50.054;8.790;2023-11-19T10:40:54;4.47;;;1.95;;
38603;SDS011;24924;50.054;8.790;2023-11-19T10:43:20;4.80;;;1.60;;
38603;SDS011;24924;50.054;8.790;2023-11-19T10:45:52;4.20;;;1.75;;
38603;SDS011;24924;50.054;8.790;2023-11-19T10:48:19;6.40;;;1.40;;
38603;SDS011;24924;50.054;8.790;2023-11-19T10:50:49;3.88;;;1.33;;
38603;SDS011;24924;50.054;8.790;2023-11-19T10:53:19;3.13;;;1.30;;
38603;SDS011;24924;50.054;8.790;2023-11-19T10:55:47;4.67;;;1.47;;
38603;SDS011;24924;50.054;8.790;2023-11-19T10:58:16;4.30;;;1.30;;
38603;SDS011;24924;50.054;8.790;2023-11-19T11:00:47;3.92;;;1.40;;
38603;SDS011;24924;50.054;8.790;2023-11-19T11:03:21;3.30;;;1.50;;
38603;SDS011;24924;50.054;8.790;2023-11-19T11:05:51;4.45;;;1.90;;
38603;SDS011;24924;50.054;8.790;2023-11-19T11:08:18;4.60;;;1.60;;
38603;SDS011;24924;50.054;8.790;2023-11-19T11:10:48;4.63;;;1.42;;
38603;SDS011;24924;50.054;8.790;2023-11-19T11:13:18;3.95;;;1.55;;
38603;SDS011;24924;50.054;8.790;2023-11-19T11:15:45;7.45;;;1.60;;
38603;SDS011;24924;50.054;8.790;2023-11-19T11:18:15;5.82;;;1.67;;
38603;SDS011;24924;50.054;8.790;2023-11-19T11:20:44;4.07;;;1.50;;
38603;SDS011;24924;50.054;8.790;2023-11-19T11:23:34;5.40;;;1.75;;
38603;SDS011;24924;50.054;8.790;2023-11-19T11:29:02;5.20;;;1.58;;
38603;SDS011;24924;50.054;8.790;2023-11-19T11:31:37;4.90;;;1.58;;
38603;SDS011;24924;50.054;8.790;2023-11-19T11:34:14;6.13;;;2.03;;
38603;SDS011;24924;50.054;8.790;2023-11-19T11:39:12;3.88;;;1.60;;
38603;SDS011;24924;50.054;8.790;2023-11-19T11:41:40;5.10;;;1.63;;
38603;SDS011;24924;50.054;8.790;2023-11-19T11:44:07;3.80;;;1.80;;
38603;SDS011;24924;50.054;8.790;2023-11-19T11:49:06;5.85;;;1.58;;
38603;SDS011;24924;50.054;8.790;2023-11-19T11:54:11;5.47;;;1.80;;
38603;SDS011;24924;50.054;8.790;2023-11-19T11:57:05;4.47;;;1.50;;
38603;SDS011;24924;50.054;8.790;2023-11-19T12:02:12;5.22;;;1.67;;
38603;SDS011;24924;50.054;8.790;2023-11-19T12:04:42;5.82;;;1.80;;
38603;SDS011;24924;50.054;8.790;2023-11-19T12:07:08;3.72;;;1.90;;
38603;SDS011;24924;50.054;8.790;2023-11-19T12:09:40;4.75;;;1.73;;
38603;SDS011;24924;50.054;8.790;2023-11-19T12:12:17;4.57;;;1.67;;
38603;SDS011;24924;50.054;8.790;2023-11-19T12:20:00;5.47;;;1.67;;
38603;SDS011;24924;50.054;8.790;2023-11-19T12:22:29;5.78;;;1.77;;
38603;SDS011;24924;50.054;8.790;2023-11-19T12:24:56;4.57;;;1.63;;
38603;SDS011;24924;50.054;8.790;2023-11-19T12:27:23;5.60;;;1.60;;
38603;SDS011;24924;50.054;8.790;2023-11-19T12:29:49;5.25;;;1.73;;
38603;SDS011;24924;50.054;8.790;2023-11-19T12:32:16;6.53;;;1.80;;
38603;SDS011;24924;50.054;8.790;2023-11-19T12:34:43;6.43;;;3.17;;
38603;SDS011;24924;50.054;8.790;2023-11-19T12:37:11;3.53;;;1.60;;
38603;SDS011;24924;50.054;8.790;2023-11-19T12:39:40;4.65;;;1.85;;
38603;SDS011;24924;50.054;8.790;2023-11-19T12:42:07;3.53;;;1.88;;
38603;SDS011;24924;50.054;8.790;2023-11-19T12:44:36;4.25;;;1.70;;
38603;SDS011;24924;50.054;8.790;2023-11-19T12:47:03;4.53;;;1.90;;
38603;SDS011;24924;50.054;8.790;2023-11-19T12:49:39;4.23;;;2.07;;
38603;SDS011;24924;50.054;8.790;2023-11-19T12:52:14;8.38;;;1.80;;
38603;SDS011;24924;50.054;8.790;2023-11-19T12:54:41;4.75;;;1.73;;
38603;SDS011;24924;50.054;8.790;2023-11-19T12:57:07;4.63;;;1.90;;
38603;SDS011;24924;50.054;8.790;2023-11-19T12:59:34;3.95;;;2.10;;
38603;SDS011;24924;50.054;8.790;2023-11-19T13:02:00;3.53;;;1.70;;
38603;SDS011;24924;50.054;8.790;2023-11-19T13:04:31;4.40;;;1.83;;
38603;SDS011;24924;50.054;8.790;2023-11-19T13:06:59;5.38;;;1.98;;
38603;SDS011;24924;50.054;8.790;2023-11-19T13:09:26;4.05;;;1.60;;
38603;SDS011;24924;50.054;8.790;2023-11-19T13:11:55;5.18;;;1.60;;
38603;SDS011;24924;50.054;8.790;2023-11-19T13:14:35;4.03;;;1.60;;
38603;SDS011;24924;50.054;8.790;2023-11-19T13:17:03;3.88;;;1.27;;
38603;SDS011;24924;50.054;8.790;2023-11-19T13:19:33;4.00;;;1.60;;
38603;SDS011;24924;50.054;8.790;2023-11-19T13:22:02;3.78;;;1.83;;
38603;SDS011;24924;50.054;8.790;2023-11-19T13:24:29;4.35;;;1.80;;
38603;SDS011;24924;50.054;8.790;2023-11-19T13:26:56;4.80;;;1.80;;
38603;SDS011;24924;50.054;8.790;2023-11-19T13:29:22;4.75;;;1.30;;
38603;SDS011;24924;50.054;8.790;2023-11-19T13:31:49;4.65;;;1.58;;
38603;SDS011;24924;50.054;8.790;2023-11-19T13:34:15;4.47;;;2.00;;
38603;SDS011;24924;50.054;8.790;2023-11-19T13:36:41;4.15;;;1.50;;
38603;SDS011;24924;50.054;8.790;2023-11-19T13:39:10;4.10;;;1.40;;
38603;SDS011;24924;50.054;8.790;2023-11-19T13:41:40;5.35;;;1.40;;
38603;SDS011;24924;50.054;8.790;2023-11-19T13:44:06;6.70;;;1.77;;
38603;SDS011;24924;50.054;8.790;2023-11-19T13:46:35;4.07;;;1.48;;
38603;SDS011;24924;50.054;8.790;2023-11-19T13:49:02;3.65;;;1.38;;
38603;SDS011;24924;50.054;8.790;2023-11-19T13:51:31;4.57;;;1.30;;
38603;SDS011;24924;50.054;8.790;2023-11-19T13:54:00;3.40;;;1.30;;
38603;SDS011;24924;50.054;8.790;2023-11-19T13:56:27;4.13;;;1.30;;
38603;SDS011;24924;50.054;8.790;2023-11-19T13:58:56;8.13;;;1.67;;
38603;SDS011;24924;50.054;8.790;2023-11-19T14:01:26;4.20;;;1.27;;
38603;SDS011;24924;50.054;8.790;2023-11-19T14:03:53;4.03;;;1.60;;
38603;SDS011;24924;50.054;8.790;2023-11-19T14:06:22;5.55;;;1.60;;
38603;SDS011;24924;50.054;8.790;2023-11-19T14:08:48;4.25;;;1.50;;
38603;SDS011;24924;50.054;8.790;2023-11-19T14:11:16;4.00;;;1.30;;
38603;SDS011;24924;50.054;8.790;2023-11-19T14:13:46;6.47;;;1.60;;
38603;SDS011;24924;50.054;8.790;2023-11-19T14:16:14;4.40;;;1.40;;
38603;SDS011;24924;50.054;8.790;2023-11-19T14:18:41;4.03;;;1.23;;
38603;SDS011;24924;50.054;8.790;2023-11-19T14:21:10;4.70;;;1.63;;
38603;SDS011;24924;50.054;8.790;2023-11-19T14:23:39;3.20;;;1.15;;
38603;SDS011;24924;50.054;8.790;2023-11-19T14:26:06;7.68;;;1.90;;
38603;SDS011;24924;50.054;8.790;2023-11-19T14:28:33;3.07;;;1.47;;
38603;SDS011;24924;50.054;8.790;2023-11-19T14:31:00;6.68;;;1.83;;
38603;SDS011;24924;50.054;8.790;2023-11-19T14:33:28;4.10;;;1.65;;
38603;SDS011;24924;50.054;8.790;2023-11-19T14:35:55;5.40;;;1.67;;
38603;SDS011;24924;50.054;8.790;2023-11-19T14:38:22;8.55;;;1.50;;
38603;SDS011;24924;50.054;8.790;2023-11-19T14:40:48;6.03;;;1.33;;
38603;SDS011;24924;50.054;8.790;2023-11-19T14:43:18;6.00;;;1.60;;
38603;SDS011;24924;50.054;8.790;2023-11-19T14:45:44;4.28;;;1.73;;
38603;SDS011;24924;50.054;8.790;2023-11-19T14:48:10;3.95;;;1.60;;
38603;SDS011;24924;50.054;8.790;2023-11-19T14:50:36;6.18;;;1.70;;
38603;SDS011;24924;50.054;8.790;2023-11-19T14:53:02;4.77;;;1.27;;
38603;SDS011;24924;50.054;8.790;2023-11-19T14:55:28;5.15;;;1.70;;
38603;SDS011;24924;50.054;8.790;2023-11-19T14:57:54;4.75;;;1.70;;
38603;SDS011;24924;50.054;8.790;2023-11-19T15:00:22;4.95;;;1.80;;
38603;SDS011;24924;50.054;8.790;2023-11-19T15:02:48;6.30;;;1.73;;
38603;SDS011;24924;50.054;8.790;2023-11-19T15:05:14;5.77;;;1.60;;
38603;SDS011;24924;50.054;8.790;2023-11-19T15:07:40;3.83;;;1.40;;
38603;SDS011;24924;50.054;8.790;2023-11-19T15:10:06;3.67;;;1.45;;
38603;SDS011;24924;50.054;8.790;2023-11-19T15:12:36;5.28;;;1.80;;